sensor_id;sensor_type;location;lat;lon;timestamp;temperature;humidity
5924;DHT22;2987;50.884;14.818;2022-12-19T00:01:19;-3.80;99.90
5924;DHT22;2987;50.884;14.818;2022-12-19T00:03:48;-3.70;99.90
5924;DHT22;2987;50.884;14.818;2022-12-19T00:08:44;-3.80;99.90
5924;DHT22;2987;50.884;14.818;2022-12-19T00:11:11;-3.90;99.90
5924;DHT22;2987;50.884;14.818;2022-12-19T00:13:38;-3.70;99.90
5924;DHT22;2987;50.884;14.818;2022-12-19T00:16:10;-3.80;99.90
5924;DHT22;2987;50.884;14.818;2022-12-19T00:18:38;-3.90;99.90
5924;DHT22;2987;50.884;14.818;2022-12-19T00:21:05;-3.60;99.90
5924;DHT22;2987;50.884;14.818;2022-12-19T00:23:33;-3.80;99.90
5924;DHT22;2987;50.884;14.818;2022-12-19T00:26:20;-3.70;99.90
5924;DHT22;2987;50.884;14.818;2022-12-19T00:31:15;-3.80;99.90
5924;DHT22;2987;50.884;14.818;2022-12-19T00:33:42;-3.90;99.90
5924;DHT22;2987;50.884;14.818;2022-12-19T00:36:10;-3.70;99.90
5924;DHT22;2987;50.884;14.818;2022-12-19T00:38:37;-3.80;99.90
5924;DHT22;2987;50.884;14.818;2022-12-19T00:41:08;-4.00;99.90
5924;DHT22;2987;50.884;14.818;2022-12-19T00:43:35;-3.90;99.90
5924;DHT22;2987;50.884;14.818;2022-12-19T00:46:04;-3.50;99.90
5924;DHT22;2987;50.884;14.818;2022-12-19T00:48:31;-3.50;99.90
5924;DHT22;2987;50.884;14.818;2022-12-19T00:51:08;-3.50;99.90
5924;DHT22;2987;50.884;14.818;2022-12-19T00:53:35;-3.60;99.90
5924;DHT22;2987;50.884;14.818;2022-12-19T00:56:04;-3.80;99.90
5924;DHT22;2987;50.884;14.818;2022-12-19T00:58:32;-3.70;99.90
5924;DHT22;2987;50.884;14.818;2022-12-19T01:01:03;-3.70;99.90
5924;DHT22;2987;50.884;14.818;2022-12-19T01:03:29;-3.70;99.90
5924;DHT22;2987;50.884;14.818;2022-12-19T01:05:56;-3.60;99.90
5924;DHT22;2987;50.884;14.818;2022-12-19T01:08:22;-3.80;99.90
5924;DHT22;2987;50.884;14.818;2022-12-19T01:10:49;-3.70;99.90
5924;DHT22;2987;50.884;14.818;2022-12-19T01:13:18;-3.70;99.90
5924;DHT22;2987;50.884;14.818;2022-12-19T01:15:44;-3.60;99.90
5924;DHT22;2987;50.884;14.818;2022-12-19T01:18:10;-3.80;99.90
5924;DHT22;2987;50.884;14.818;2022-12-19T01:20:38;-3.30;99.90
5924;DHT22;2987;50.884;14.818;2022-12-19T01:23:05;-3.50;99.90
5924;DHT22;2987;50.884;14.818;2022-12-19T01:25:34;-3.40;99.90
5924;DHT22;2987;50.884;14.818;2022-12-19T01:28:04;-3.30;99.90
5924;DHT22;2987;50.884;14.818;2022-12-19T01:30:32;-3.20;99.90
5924;DHT22;2987;50.884;14.818;2022-12-19T01:32:59;-3.50;99.90
5924;DHT22;2987;50.884;14.818;2022-12-19T01:35:27;-3.40;99.90
5924;DHT22;2987;50.884;14.818;2022-12-19T01:37:53;-3.10;99.90
5924;DHT22;2987;50.884;14.818;2022-12-19T01:40:23;-3.30;99.90
5924;DHT22;2987;50.884;14.818;2022-12-19T01:42:49;-3.30;99.90
5924;DHT22;2987;50.884;14.818;2022-12-19T01:45:26;-3.30;99.90
5924;DHT22;2987;50.884;14.818;2022-12-19T01:48:05;-3.30;99.90
5924;DHT22;2987;50.884;14.818;2022-12-19T01:50:54;-3.10;99.90
5924;DHT22;2987;50.884;14.818;2022-12-19T01:55:47;-3.10;99.90
5924;DHT22;2987;50.884;14.818;2022-12-19T01:58:13;-3.20;99.90
5924;DHT22;2987;50.884;14.818;2022-12-19T02:00:43;-2.90;99.90
5924;DHT22;2987;50.884;14.818;2022-12-19T02:03:29;-3.10;99.90
5924;DHT22;2987;50.884;14.818;2022-12-19T02:05:58;-3.20;99.90
5924;DHT22;2987;50.884;14.818;2022-12-19T02:08:26;-2.90;99.90
5924;DHT22;2987;50.884;14.818;2022-12-19T02:10:53;-3.10;99.90
5924;DHT22;2987;50.884;14.818;2022-12-19T02:13:21;-3.00;99.90
5924;DHT22;2987;50.884;14.818;2022-12-19T02:21:34;-2.90;99.90
5924;DHT22;2987;50.884;14.818;2022-12-19T02:27:23;-2.50;99.90
5924;DHT22;2987;50.884;14.818;2022-12-19T02:30:12;-2.70;99.90
5924;DHT22;2987;50.884;14.818;2022-12-19T02:41:07;-2.70;99.90
5924;DHT22;2987;50.884;14.818;2022-12-19T02:43:40;-2.70;99.90
5924;DHT22;2987;50.884;14.818;2022-12-19T02:46:08;-2.90;99.90
5924;DHT22;2987;50.884;14.818;2022-12-19T02:48:36;-2.80;99.90
5924;DHT22;2987;50.884;14.818;2022-12-19T02:51:03;-2.80;99.90
5924;DHT22;2987;50.884;14.818;2022-12-19T02:53:31;-2.60;99.90
5924;DHT22;2987;50.884;14.818;2022-12-19T02:56:13;-2.70;99.90
5924;DHT22;2987;50.884;14.818;2022-12-19T02:59:13;-2.80;99.90
5924;DHT22;2987;50.884;14.818;2022-12-19T03:01:48;-2.70;99.90
5924;DHT22;2987;50.884;14.818;2022-12-19T03:07:29;-2.70;99.90
5924;DHT22;2987;50.884;14.818;2022-12-19T03:15:22;-2.50;99.90
5924;DHT22;2987;50.884;14.818;2022-12-19T03:20:22;-2.60;99.90
5924;DHT22;2987;50.884;14.818;2022-12-19T03:22:51;-2.50;99.90
5924;DHT22;2987;50.884;14.818;2022-12-19T03:25:18;-2.20;99.90
5924;DHT22;2987;50.884;14.818;2022-12-19T03:27:51;-2.30;99.90
5924;DHT22;2987;50.884;14.818;2022-12-19T03:30:18;-2.30;99.90
5924;DHT22;2987;50.884;14.818;2022-12-19T03:32:45;-2.20;99.90
5924;DHT22;2987;50.884;14.818;2022-12-19T03:35:17;-2.00;99.90
5924;DHT22;2987;50.884;14.818;2022-12-19T03:37:51;-2.30;99.90
5924;DHT22;2987;50.884;14.818;2022-12-19T03:40:21;-2.10;99.90
5924;DHT22;2987;50.884;14.818;2022-12-19T03:42:54;-2.30;99.90
5924;DHT22;2987;50.884;14.818;2022-12-19T03:45:54;-2.20;99.90
5924;DHT22;2987;50.884;14.818;2022-12-19T03:48:43;-2.30;99.90
5924;DHT22;2987;50.884;14.818;2022-12-19T03:51:21;-2.20;99.90
5924;DHT22;2987;50.884;14.818;2022-12-19T03:54:02;-1.80;99.90
5924;DHT22;2987;50.884;14.818;2022-12-19T03:59:30;-2.10;99.90
5924;DHT22;2987;50.884;14.818;2022-12-19T04:02:01;-1.90;99.90
5924;DHT22;2987;50.884;14.818;2022-12-19T04:04:28;-1.80;99.90
5924;DHT22;2987;50.884;14.818;2022-12-19T04:06:56;-2.10;99.90
5924;DHT22;2987;50.884;14.818;2022-12-19T04:09:23;-2.00;99.90
5924;DHT22;2987;50.884;14.818;2022-12-19T04:11:54;-1.70;99.90
5924;DHT22;2987;50.884;14.818;2022-12-19T04:14:30;-2.10;99.90
5924;DHT22;2987;50.884;14.818;2022-12-19T04:17:07;-1.90;99.90
5924;DHT22;2987;50.884;14.818;2022-12-19T04:19:47;-1.90;99.90
5924;DHT22;2987;50.884;14.818;2022-12-19T04:22:22;-1.90;99.90
5924;DHT22;2987;50.884;14.818;2022-12-19T04:24:50;-1.70;99.90
5924;DHT22;2987;50.884;14.818;2022-12-19T04:27:19;-1.90;99.90
5924;DHT22;2987;50.884;14.818;2022-12-19T04:29:47;-1.90;99.90
5924;DHT22;2987;50.884;14.818;2022-12-19T04:32:17;-1.60;99.90
5924;DHT22;2987;50.884;14.818;2022-12-19T04:34:43;-1.90;99.90
5924;DHT22;2987;50.884;14.818;2022-12-19T04:37:10;-1.60;99.90
5924;DHT22;2987;50.884;14.818;2022-12-19T04:39:37;-1.80;99.90
5924;DHT22;2987;50.884;14.818;2022-12-19T04:42:03;-1.50;99.90
5924;DHT22;2987;50.884;14.818;2022-12-19T04:44:29;-1.70;99.90
5924;DHT22;2987;50.884;14.818;2022-12-19T04:46:56;-1.60;99.90
5924;DHT22;2987;50.884;14.818;2022-12-19T04:49:22;-1.50;99.90
5924;DHT22;2987;50.884;14.818;2022-12-19T04:51:48;-1.60;99.90
5924;DHT22;2987;50.884;14.818;2022-12-19T04:54:14;-1.50;99.90
5924;DHT22;2987;50.884;14.818;2022-12-19T04:56:40;-1.60;99.90
5924;DHT22;2987;50.884;14.818;2022-12-19T04:59:07;-1.80;99.90
5924;DHT22;2987;50.884;14.818;2022-12-19T05:01:33;-1.50;99.90
5924;DHT22;2987;50.884;14.818;2022-12-19T05:03:59;-1.60;99.90
5924;DHT22;2987;50.884;14.818;2022-12-19T05:06:25;-1.50;99.90
5924;DHT22;2987;50.884;14.818;2022-12-19T05:08:51;-1.60;99.90
5924;DHT22;2987;50.884;14.818;2022-12-19T05:11:17;-1.50;99.90
5924;DHT22;2987;50.884;14.818;2022-12-19T05:13:45;-1.70;99.90
5924;DHT22;2987;50.884;14.818;2022-12-19T05:16:12;-1.40;99.90
5924;DHT22;2987;50.884;14.818;2022-12-19T05:18:38;-1.70;99.90
5924;DHT22;2987;50.884;14.818;2022-12-19T05:21:06;-1.40;99.90
5924;DHT22;2987;50.884;14.818;2022-12-19T05:23:32;-1.30;99.90
5924;DHT22;2987;50.884;14.818;2022-12-19T05:25:59;-1.50;99.90
5924;DHT22;2987;50.884;14.818;2022-12-19T05:28:26;-1.50;99.90
5924;DHT22;2987;50.884;14.818;2022-12-19T05:31:11;-1.50;99.90
5924;DHT22;2987;50.884;14.818;2022-12-19T05:33:39;-1.50;99.90
5924;DHT22;2987;50.884;14.818;2022-12-19T05:36:08;-1.50;99.90
5924;DHT22;2987;50.884;14.818;2022-12-19T05:38:34;-1.40;99.90
5924;DHT22;2987;50.884;14.818;2022-12-19T05:41:06;-1.30;99.90
5924;DHT22;2987;50.884;14.818;2022-12-19T05:43:32;-1.50;99.90
5924;DHT22;2987;50.884;14.818;2022-12-19T05:45:58;-1.60;99.90
5924;DHT22;2987;50.884;14.818;2022-12-19T05:48:24;-1.30;99.90
5924;DHT22;2987;50.884;14.818;2022-12-19T05:50:50;-1.60;99.90
5924;DHT22;2987;50.884;14.818;2022-12-19T05:53:17;-1.30;99.90
5924;DHT22;2987;50.884;14.818;2022-12-19T05:55:44;-1.60;99.90
5924;DHT22;2987;50.884;14.818;2022-12-19T05:58:10;-1.30;99.90
5924;DHT22;2987;50.884;14.818;2022-12-19T06:00:37;-1.60;99.90
5924;DHT22;2987;50.884;14.818;2022-12-19T06:03:03;-1.20;99.90
5924;DHT22;2987;50.884;14.818;2022-12-19T06:05:29;-1.20;99.90
5924;DHT22;2987;50.884;14.818;2022-12-19T06:07:55;-1.20;99.90
5924;DHT22;2987;50.884;14.818;2022-12-19T06:10:21;-1.10;99.90
5924;DHT22;2987;50.884;14.818;2022-12-19T06:12:48;-1.40;99.90
5924;DHT22;2987;50.884;14.818;2022-12-19T06:15:14;-1.20;99.90
5924;DHT22;2987;50.884;14.818;2022-12-19T06:17:40;-1.20;99.90
5924;DHT22;2987;50.884;14.818;2022-12-19T06:20:07;-1.30;99.90
5924;DHT22;2987;50.884;14.818;2022-12-19T06:22:34;-1.10;99.90
5924;DHT22;2987;50.884;14.818;2022-12-19T06:25:00;-1.30;99.90
5924;DHT22;2987;50.884;14.818;2022-12-19T06:27:26;-1.10;99.90
5924;DHT22;2987;50.884;14.818;2022-12-19T06:29:52;-1.40;99.90
5924;DHT22;2987;50.884;14.818;2022-12-19T06:32:18;-1.20;99.90
5924;DHT22;2987;50.884;14.818;2022-12-19T06:34:44;-1.20;99.90
5924;DHT22;2987;50.884;14.818;2022-12-19T06:37:11;-1.00;99.90
5924;DHT22;2987;50.884;14.818;2022-12-19T06:39:37;-0.90;99.90
5924;DHT22;2987;50.884;14.818;2022-12-19T06:42:03;-0.90;99.90
5924;DHT22;2987;50.884;14.818;2022-12-19T06:44:53;-1.00;99.90
5924;DHT22;2987;50.884;14.818;2022-12-19T06:47:21;-0.90;99.90
5924;DHT22;2987;50.884;14.818;2022-12-19T06:49:48;-1.00;99.90
5924;DHT22;2987;50.884;14.818;2022-12-19T06:52:15;-0.90;99.90
5924;DHT22;2987;50.884;14.818;2022-12-19T06:54:42;-1.00;99.90
5924;DHT22;2987;50.884;14.818;2022-12-19T06:57:08;-0.90;99.90
5924;DHT22;2987;50.884;14.818;2022-12-19T06:59:34;-0.80;99.90
5924;DHT22;2987;50.884;14.818;2022-12-19T07:02:20;-0.90;99.90
5924;DHT22;2987;50.884;14.818;2022-12-19T07:04:51;-1.00;99.90
5924;DHT22;2987;50.884;14.818;2022-12-19T07:07:18;-0.90;99.90
5924;DHT22;2987;50.884;14.818;2022-12-19T07:09:44;-1.00;99.90
5924;DHT22;2987;50.884;14.818;2022-12-19T07:12:13;-0.90;99.90
5924;DHT22;2987;50.884;14.818;2022-12-19T07:14:39;-1.00;99.90
5924;DHT22;2987;50.884;14.818;2022-12-19T07:17:05;-0.90;99.90
5924;DHT22;2987;50.884;14.818;2022-12-19T07:19:32;-1.00;99.90
5924;DHT22;2987;50.884;14.818;2022-12-19T07:22:03;-0.90;99.90
5924;DHT22;2987;50.884;14.818;2022-12-19T07:24:29;-1.10;99.90
5924;DHT22;2987;50.884;14.818;2022-12-19T07:26:58;-0.70;99.90
5924;DHT22;2987;50.884;14.818;2022-12-19T07:29:24;-0.90;99.90
5924;DHT22;2987;50.884;14.818;2022-12-19T07:31:50;-0.90;99.90
5924;DHT22;2987;50.884;14.818;2022-12-19T07:34:16;-0.60;99.90
5924;DHT22;2987;50.884;14.818;2022-12-19T07:36:42;-0.70;99.90
5924;DHT22;2987;50.884;14.818;2022-12-19T07:39:08;-0.90;99.90
5924;DHT22;2987;50.884;14.818;2022-12-19T07:41:36;-0.80;99.90
5924;DHT22;2987;50.884;14.818;2022-12-19T07:44:04;-0.70;99.90
5924;DHT22;2987;50.884;14.818;2022-12-19T07:46:30;-0.90;99.90
5924;DHT22;2987;50.884;14.818;2022-12-19T07:48:58;-0.80;99.90
5924;DHT22;2987;50.884;14.818;2022-12-19T07:51:24;-0.70;99.90
5924;DHT22;2987;50.884;14.818;2022-12-19T07:53:50;-0.90;99.90
5924;DHT22;2987;50.884;14.818;2022-12-19T07:56:16;-0.90;99.90
5924;DHT22;2987;50.884;14.818;2022-12-19T07:58:42;-0.60;99.90
5924;DHT22;2987;50.884;14.818;2022-12-19T08:01:09;-0.80;99.90
5924;DHT22;2987;50.884;14.818;2022-12-19T08:03:37;-0.70;99.90
5924;DHT22;2987;50.884;14.818;2022-12-19T08:06:05;-0.50;99.90
5924;DHT22;2987;50.884;14.818;2022-12-19T08:08:32;-0.50;99.90
5924;DHT22;2987;50.884;14.818;2022-12-19T08:11:17;-0.50;99.90
5924;DHT22;2987;50.884;14.818;2022-12-19T08:13:44;-0.50;99.90
5924;DHT22;2987;50.884;14.818;2022-12-19T08:16:10;-0.50;99.90
5924;DHT22;2987;50.884;14.818;2022-12-19T08:18:36;-0.50;99.90
5924;DHT22;2987;50.884;14.818;2022-12-19T08:21:03;-0.50;99.90
5924;DHT22;2987;50.884;14.818;2022-12-19T08:23:29;-0.50;99.90
5924;DHT22;2987;50.884;14.818;2022-12-19T08:26:01;-0.50;99.90
5924;DHT22;2987;50.884;14.818;2022-12-19T08:28:29;-0.40;99.90
5924;DHT22;2987;50.884;14.818;2022-12-19T08:30:56;-0.40;99.90
5924;DHT22;2987;50.884;14.818;2022-12-19T08:33:22;-0.50;99.90
5924;DHT22;2987;50.884;14.818;2022-12-19T08:35:48;-0.30;99.90
5924;DHT22;2987;50.884;14.818;2022-12-19T08:38:15;-0.30;99.90
5924;DHT22;2987;50.884;14.818;2022-12-19T08:40:41;-0.30;99.90
5924;DHT22;2987;50.884;14.818;2022-12-19T08:43:07;-0.30;99.90
5924;DHT22;2987;50.884;14.818;2022-12-19T08:45:33;-0.20;99.90
5924;DHT22;2987;50.884;14.818;2022-12-19T08:47:59;-0.10;99.90
5924;DHT22;2987;50.884;14.818;2022-12-19T08:50:25;-0.30;99.90
5924;DHT22;2987;50.884;14.818;2022-12-19T08:52:51;-0.10;99.90
5924;DHT22;2987;50.884;14.818;2022-12-19T08:55:17;-0.10;99.90
5924;DHT22;2987;50.884;14.818;2022-12-19T08:57:43;-0.10;99.90
5924;DHT22;2987;50.884;14.818;2022-12-19T09:00:10;0.00;99.90
5924;DHT22;2987;50.884;14.818;2022-12-19T09:02:36;-0.10;99.90
5924;DHT22;2987;50.884;14.818;2022-12-19T09:05:02;-0.10;99.90
5924;DHT22;2987;50.884;14.818;2022-12-19T09:07:28;-0.10;99.90
5924;DHT22;2987;50.884;14.818;2022-12-19T09:09:55;0.00;99.90
5924;DHT22;2987;50.884;14.818;2022-12-19T09:12:24;0.10;99.90
5924;DHT22;2987;50.884;14.818;2022-12-19T09:14:51;0.00;99.90
5924;DHT22;2987;50.884;14.818;2022-12-19T09:17:17;0.00;99.90
5924;DHT22;2987;50.884;14.818;2022-12-19T09:19:43;0.10;99.90
5924;DHT22;2987;50.884;14.818;2022-12-19T09:22:09;0.00;99.90
5924;DHT22;2987;50.884;14.818;2022-12-19T09:24:35;0.30;99.90
5924;DHT22;2987;50.884;14.818;2022-12-19T09:27:01;0.10;99.90
5924;DHT22;2987;50.884;14.818;2022-12-19T09:29:27;0.20;99.90
5924;DHT22;2987;50.884;14.818;2022-12-19T09:31:53;0.10;99.90
5924;DHT22;2987;50.884;14.818;2022-12-19T09:34:19;0.20;99.90
5924;DHT22;2987;50.884;14.818;2022-12-19T09:36:46;0.20;99.90
5924;DHT22;2987;50.884;14.818;2022-12-19T09:39:12;0.40;99.90
5924;DHT22;2987;50.884;14.818;2022-12-19T09:47:14;0.20;99.90
5924;DHT22;2987;50.884;14.818;2022-12-19T09:49:47;0.40;99.90
5924;DHT22;2987;50.884;14.818;2022-12-19T09:52:39;0.40;99.90
5924;DHT22;2987;50.884;14.818;2022-12-19T09:55:27;0.40;99.90
5924;DHT22;2987;50.884;14.818;2022-12-19T10:00:51;0.50;99.90
5924;DHT22;2987;50.884;14.818;2022-12-19T10:05:51;0.60;99.90
5924;DHT22;2987;50.884;14.818;2022-12-19T10:14:10;0.60;99.90
5924;DHT22;2987;50.884;14.818;2022-12-19T10:17:02;0.70;99.90
5924;DHT22;2987;50.884;14.818;2022-12-19T10:19:54;0.80;99.90
5924;DHT22;2987;50.884;14.818;2022-12-19T10:22:27;0.60;99.90
5924;DHT22;2987;50.884;14.818;2022-12-19T10:28:05;0.70;99.90
5924;DHT22;2987;50.884;14.818;2022-12-19T10:30:47;0.70;99.90
5924;DHT22;2987;50.884;14.818;2022-12-19T10:35:45;0.80;99.90
5924;DHT22;2987;50.884;14.818;2022-12-19T10:38:21;0.60;99.90
5924;DHT22;2987;50.884;14.818;2022-12-19T10:43:53;0.50;99.90
5924;DHT22;2987;50.884;14.818;2022-12-19T10:46:34;0.60;99.90
5924;DHT22;2987;50.884;14.818;2022-12-19T10:49:10;0.30;99.90
5924;DHT22;2987;50.884;14.818;2022-12-19T10:51:38;0.40;99.90
5924;DHT22;2987;50.884;14.818;2022-12-19T10:54:04;0.30;99.90
5924;DHT22;2987;50.884;14.818;2022-12-19T10:56:31;0.70;99.90
5924;DHT22;2987;50.884;14.818;2022-12-19T10:58:58;0.80;99.90
5924;DHT22;2987;50.884;14.818;2022-12-19T11:01:42;0.60;99.90
5924;DHT22;2987;50.884;14.818;2022-12-19T11:04:29;0.50;99.90
5924;DHT22;2987;50.884;14.818;2022-12-19T11:07:18;0.60;99.90
5924;DHT22;2987;50.884;14.818;2022-12-19T11:12:12;0.70;99.90
5924;DHT22;2987;50.884;14.818;2022-12-19T11:14:42;0.60;99.90
5924;DHT22;2987;50.884;14.818;2022-12-19T11:17:37;0.60;99.90
5924;DHT22;2987;50.884;14.818;2022-12-19T11:20:21;0.60;99.90
5924;DHT22;2987;50.884;14.818;2022-12-19T11:22:54;0.60;99.90
5924;DHT22;2987;50.884;14.818;2022-12-19T11:25:29;0.60;99.90
5924;DHT22;2987;50.884;14.818;2022-12-19T11:27:56;0.60;99.90
5924;DHT22;2987;50.884;14.818;2022-12-19T11:30:24;0.60;99.90
5924;DHT22;2987;50.884;14.818;2022-12-19T11:33:12;0.60;99.90
5924;DHT22;2987;50.884;14.818;2022-12-19T11:35:49;0.60;99.90
5924;DHT22;2987;50.884;14.818;2022-12-19T11:38:21;0.60;99.90
5924;DHT22;2987;50.884;14.818;2022-12-19T11:40:55;0.70;99.90
5924;DHT22;2987;50.884;14.818;2022-12-19T11:46:51;0.80;99.90
5924;DHT22;2987;50.884;14.818;2022-12-19T11:57:39;1.00;99.90
5924;DHT22;2987;50.884;14.818;2022-12-19T12:00:12;0.80;99.90
5924;DHT22;2987;50.884;14.818;2022-12-19T12:05:42;0.80;99.90
5924;DHT22;2987;50.884;14.818;2022-12-19T12:08:49;0.80;99.90
5924;DHT22;2987;50.884;14.818;2022-12-19T12:17:00;1.00;99.90
5924;DHT22;2987;50.884;14.818;2022-12-19T12:25:25;0.70;99.90
5924;DHT22;2987;50.884;14.818;2022-12-19T12:28:37;0.70;99.90
5924;DHT22;2987;50.884;14.818;2022-12-19T12:31:23;0.60;99.90
5924;DHT22;2987;50.884;14.818;2022-12-19T12:34:28;0.50;99.90
5924;DHT22;2987;50.884;14.818;2022-12-19T12:39:46;0.60;99.90
5924;DHT22;2987;50.884;14.818;2022-12-19T12:42:39;0.60;99.90
5924;DHT22;2987;50.884;14.818;2022-12-19T12:45:37;0.60;99.90
5924;DHT22;2987;50.884;14.818;2022-12-19T12:48:19;0.60;99.90
5924;DHT22;2987;50.884;14.818;2022-12-19T12:50:48;0.60;99.90
5924;DHT22;2987;50.884;14.818;2022-12-19T12:53:18;0.70;99.90
5924;DHT22;2987;50.884;14.818;2022-12-19T12:55:46;0.90;99.90
5924;DHT22;2987;50.884;14.818;2022-12-19T12:58:41;0.90;99.90
5924;DHT22;2987;50.884;14.818;2022-12-19T13:03:34;0.60;99.90
5924;DHT22;2987;50.884;14.818;2022-12-19T13:06:09;0.60;99.90
5924;DHT22;2987;50.884;14.818;2022-12-19T13:08:46;0.60;99.90
5924;DHT22;2987;50.884;14.818;2022-12-19T13:14:42;0.60;99.90
5924;DHT22;2987;50.884;14.818;2022-12-19T13:17:11;0.70;99.90
5924;DHT22;2987;50.884;14.818;2022-12-19T13:19:51;0.80;99.90
5924;DHT22;2987;50.884;14.818;2022-12-19T13:22:36;0.80;99.90
5924;DHT22;2987;50.884;14.818;2022-12-19T13:28:35;0.90;99.90
5924;DHT22;2987;50.884;14.818;2022-12-19T13:31:12;0.60;99.90
5924;DHT22;2987;50.884;14.818;2022-12-19T13:34:08;1.10;99.90
5924;DHT22;2987;50.884;14.818;2022-12-19T13:36:58;0.90;99.90
5924;DHT22;2987;50.884;14.818;2022-12-19T13:42:19;0.80;99.90
5924;DHT22;2987;50.884;14.818;2022-12-19T13:45:12;0.80;99.90
5924;DHT22;2987;50.884;14.818;2022-12-19T13:50:14;0.80;99.90
5924;DHT22;2987;50.884;14.818;2022-12-19T13:52:48;0.90;99.90
5924;DHT22;2987;50.884;14.818;2022-12-19T13:55:18;0.80;99.90
5924;DHT22;2987;50.884;14.818;2022-12-19T13:57:54;0.80;99.90
5924;DHT22;2987;50.884;14.818;2022-12-19T14:00:30;0.80;99.90
5924;DHT22;2987;50.884;14.818;2022-12-19T14:02:59;0.80;99.90
5924;DHT22;2987;50.884;14.818;2022-12-19T14:05:29;0.60;99.90
5924;DHT22;2987;50.884;14.818;2022-12-19T14:07:57;0.70;99.90
5924;DHT22;2987;50.884;14.818;2022-12-19T14:10:32;0.90;99.90
5924;DHT22;2987;50.884;14.818;2022-12-19T14:13:03;1.00;99.90
5924;DHT22;2987;50.884;14.818;2022-12-19T14:15:50;1.10;99.90
5924;DHT22;2987;50.884;14.818;2022-12-19T14:18:30;0.80;99.90
5924;DHT22;2987;50.884;14.818;2022-12-19T14:21:17;0.80;99.90
5924;DHT22;2987;50.884;14.818;2022-12-19T14:23:44;1.00;99.90
5924;DHT22;2987;50.884;14.818;2022-12-19T14:26:16;1.10;99.90
5924;DHT22;2987;50.884;14.818;2022-12-19T14:28:51;0.80;99.90
5924;DHT22;2987;50.884;14.818;2022-12-19T14:31:19;0.70;99.90
5924;DHT22;2987;50.884;14.818;2022-12-19T14:33:48;0.90;99.90
5924;DHT22;2987;50.884;14.818;2022-12-19T14:36:26;0.80;99.90
5924;DHT22;2987;50.884;14.818;2022-12-19T14:38:54;0.80;99.90
5924;DHT22;2987;50.884;14.818;2022-12-19T14:41:36;0.80;99.90
5924;DHT22;2987;50.884;14.818;2022-12-19T14:44:46;0.80;99.90
5924;DHT22;2987;50.884;14.818;2022-12-19T14:47:20;0.60;99.90
5924;DHT22;2987;50.884;14.818;2022-12-19T14:49:46;0.50;99.90
5924;DHT22;2987;50.884;14.818;2022-12-19T14:52:37;0.70;99.90
5924;DHT22;2987;50.884;14.818;2022-12-19T14:57:47;0.70;99.90
5924;DHT22;2987;50.884;14.818;2022-12-19T15:00:31;0.70;99.90
5924;DHT22;2987;50.884;14.818;2022-12-19T15:03:01;0.80;99.90
5924;DHT22;2987;50.884;14.818;2022-12-19T15:05:30;0.60;99.90
5924;DHT22;2987;50.884;14.818;2022-12-19T15:07:57;0.60;99.90
5924;DHT22;2987;50.884;14.818;2022-12-19T15:10:27;0.60;99.90
5924;DHT22;2987;50.884;14.818;2022-12-19T15:13:01;0.60;99.90
5924;DHT22;2987;50.884;14.818;2022-12-19T15:15:53;0.60;99.90
5924;DHT22;2987;50.884;14.818;2022-12-19T15:18:26;0.60;99.90
5924;DHT22;2987;50.884;14.818;2022-12-19T15:20:55;0.60;99.90
5924;DHT22;2987;50.884;14.818;2022-12-19T15:23:22;0.60;99.90
5924;DHT22;2987;50.884;14.818;2022-12-19T15:25:51;0.60;99.90
5924;DHT22;2987;50.884;14.818;2022-12-19T15:28:19;0.60;99.90
5924;DHT22;2987;50.884;14.818;2022-12-19T15:30:49;0.60;99.90
5924;DHT22;2987;50.884;14.818;2022-12-19T15:33:17;0.60;99.90
5924;DHT22;2987;50.884;14.818;2022-12-19T15:35:44;0.60;99.90
5924;DHT22;2987;50.884;14.818;2022-12-19T15:38:10;0.40;99.90
5924;DHT22;2987;50.884;14.818;2022-12-19T15:40:38;0.30;99.90
5924;DHT22;2987;50.884;14.818;2022-12-19T15:43:05;0.80;99.90
5924;DHT22;2987;50.884;14.818;2022-12-19T15:45:32;0.70;99.90
5924;DHT22;2987;50.884;14.818;2022-12-19T15:47:58;0.80;99.90
5924;DHT22;2987;50.884;14.818;2022-12-19T15:50:27;0.60;99.90
5924;DHT22;2987;50.884;14.818;2022-12-19T15:52:56;0.60;99.90
5924;DHT22;2987;50.884;14.818;2022-12-19T15:55:25;0.60;99.90
5924;DHT22;2987;50.884;14.818;2022-12-19T15:57:57;0.70;99.90
5924;DHT22;2987;50.884;14.818;2022-12-19T16:00:27;0.50;99.90
5924;DHT22;2987;50.884;14.818;2022-12-19T16:02:56;0.70;99.90
5924;DHT22;2987;50.884;14.818;2022-12-19T16:05:23;0.50;99.90
5924;DHT22;2987;50.884;14.818;2022-12-19T16:07:50;0.70;99.90
5924;DHT22;2987;50.884;14.818;2022-12-19T16:10:16;0.70;99.90
5924;DHT22;2987;50.884;14.818;2022-12-19T16:12:45;0.30;99.90
5924;DHT22;2987;50.884;14.818;2022-12-19T16:15:18;0.60;99.90
5924;DHT22;2987;50.884;14.818;2022-12-19T16:17:45;0.40;99.90
5924;DHT22;2987;50.884;14.818;2022-12-19T16:20:17;0.40;99.90
5924;DHT22;2987;50.884;14.818;2022-12-19T16:22:44;0.40;99.90
5924;DHT22;2987;50.884;14.818;2022-12-19T16:25:11;0.30;99.90
5924;DHT22;2987;50.884;14.818;2022-12-19T16:27:38;0.30;99.90
5924;DHT22;2987;50.884;14.818;2022-12-19T16:30:19;0.30;99.90
5924;DHT22;2987;50.884;14.818;2022-12-19T16:32:47;0.30;99.90
5924;DHT22;2987;50.884;14.818;2022-12-19T16:35:16;0.20;99.90
5924;DHT22;2987;50.884;14.818;2022-12-19T16:37:43;0.40;99.90
5924;DHT22;2987;50.884;14.818;2022-12-19T16:40:19;0.40;99.90
5924;DHT22;2987;50.884;14.818;2022-12-19T16:42:47;0.40;99.90
5924;DHT22;2987;50.884;14.818;2022-12-19T16:45:17;0.40;99.90
5924;DHT22;2987;50.884;14.818;2022-12-19T16:47:44;0.40;99.90
5924;DHT22;2987;50.884;14.818;2022-12-19T16:50:18;0.40;99.90
5924;DHT22;2987;50.884;14.818;2022-12-19T16:52:47;0.40;99.90
5924;DHT22;2987;50.884;14.818;2022-12-19T16:55:14;0.40;99.90
5924;DHT22;2987;50.884;14.818;2022-12-19T16:57:43;0.40;99.90
5924;DHT22;2987;50.884;14.818;2022-12-19T17:00:14;0.40;99.90
5924;DHT22;2987;50.884;14.818;2022-12-19T17:02:46;0.30;99.90
5924;DHT22;2987;50.884;14.818;2022-12-19T17:05:20;0.30;99.90
5924;DHT22;2987;50.884;14.818;2022-12-19T17:07:47;0.30;99.90
5924;DHT22;2987;50.884;14.818;2022-12-19T17:10:13;0.30;99.90
5924;DHT22;2987;50.884;14.818;2022-12-19T17:12:40;0.30;99.90
5924;DHT22;2987;50.884;14.818;2022-12-19T17:15:20;0.30;99.90
5924;DHT22;2987;50.884;14.818;2022-12-19T17:17:47;0.30;99.90
5924;DHT22;2987;50.884;14.818;2022-12-19T17:20:18;0.30;99.90
5924;DHT22;2987;50.884;14.818;2022-12-19T17:22:45;0.30;99.90
5924;DHT22;2987;50.884;14.818;2022-12-19T17:25:15;0.30;99.90
5924;DHT22;2987;50.884;14.818;2022-12-19T17:27:42;0.30;99.90
5924;DHT22;2987;50.884;14.818;2022-12-19T17:30:09;0.30;99.90
5924;DHT22;2987;50.884;14.818;2022-12-19T17:32:35;0.50;99.90
5924;DHT22;2987;50.884;14.818;2022-12-19T17:35:01;0.40;99.90
5924;DHT22;2987;50.884;14.818;2022-12-19T17:37:27;0.40;99.90
5924;DHT22;2987;50.884;14.818;2022-12-19T17:39:53;0.30;99.90
5924;DHT22;2987;50.884;14.818;2022-12-19T17:42:22;0.30;99.90
5924;DHT22;2987;50.884;14.818;2022-12-19T17:44:49;0.30;99.90
5924;DHT22;2987;50.884;14.818;2022-12-19T17:47:18;0.30;99.90
5924;DHT22;2987;50.884;14.818;2022-12-19T17:49:46;0.30;99.90
5924;DHT22;2987;50.884;14.818;2022-12-19T17:52:14;0.30;99.90
5924;DHT22;2987;50.884;14.818;2022-12-19T17:54:41;0.60;99.90
5924;DHT22;2987;50.884;14.818;2022-12-19T17:57:12;0.40;99.90
5924;DHT22;2987;50.884;14.818;2022-12-19T17:59:39;0.40;99.90
5924;DHT22;2987;50.884;14.818;2022-12-19T18:02:18;0.40;99.90
5924;DHT22;2987;50.884;14.818;2022-12-19T18:04:46;0.40;99.90
5924;DHT22;2987;50.884;14.818;2022-12-19T18:07:15;0.40;99.90
5924;DHT22;2987;50.884;14.818;2022-12-19T18:09:41;0.40;99.90